createdAt,value
2022-07-26T00:04:46.457Z,24.00
2022-07-26T00:09:49.601Z,23.90
2022-07-26T00:14:54.709Z,23.90
2022-07-26T00:19:57.893Z,23.80
2022-07-26T00:25:01.462Z,23.80
2022-07-26T00:30:07.805Z,23.80
2022-07-26T00:35:15.153Z,23.80
2022-07-26T00:40:18.752Z,23.80
2022-07-26T00:45:23.304Z,23.80
2022-07-26T00:50:26.488Z,23.80
2022-07-26T00:55:30.058Z,23.80
2022-07-26T01:00:35.248Z,23.80
2022-07-26T01:05:38.525Z,23.80
2022-07-26T01:10:43.795Z,23.70
2022-07-26T01:15:48.432Z,23.70
2022-07-26T01:20:52.955Z,23.70
2022-07-26T01:25:58.142Z,23.70
2022-07-26T01:31:02.632Z,23.60
2022-07-26T01:36:06.527Z,23.60
2022-07-26T01:41:11.303Z,23.70
2022-07-26T01:46:14.630Z,23.70
2022-07-26T01:51:17.932Z,23.70
2022-07-26T01:56:22.657Z,23.60
2022-07-26T02:01:39.320Z,23.60
2022-07-26T02:06:43.324Z,23.50
2022-07-26T02:11:49.270Z,23.50
2022-07-26T02:16:56.532Z,23.50
2022-07-26T02:22:00.311Z,23.50
2022-07-26T02:27:05.855Z,23.50
2022-07-26T02:32:11.204Z,23.50
2022-07-26T02:37:14.335Z,23.50
2022-07-26T02:42:18.861Z,23.40
2022-07-26T02:47:22.121Z,23.40
2022-07-26T02:52:25.228Z,23.40
2022-07-26T02:57:29.756Z,23.40
2022-07-26T03:02:51.237Z,23.40
2022-07-26T03:07:54.481Z,23.40
2022-07-26T03:12:59.254Z,23.40
2022-07-26T03:18:02.452Z,23.50
2022-07-26T03:23:05.620Z,23.60
2022-07-26T03:28:10.111Z,23.70
2022-07-26T03:33:13.330Z,23.70
2022-07-26T03:38:16.586Z,23.70
2022-07-26T03:43:23.364Z,23.70
2022-07-26T03:48:26.800Z,23.70
2022-07-26T03:53:30.083Z,23.80
2022-07-26T03:58:34.656Z,23.70
2022-07-26T04:03:37.925Z,23.60
2022-07-26T04:08:41.402Z,23.50
2022-07-26T04:13:45.962Z,23.50
2022-07-26T04:18:50.087Z,23.40
2022-07-26T04:23:53.620Z,23.40
2022-07-26T04:28:58.444Z,23.40
2022-07-26T04:34:01.621Z,23.40
2022-07-26T04:39:05.079Z,23.50
2022-07-26T04:44:10.111Z,23.50
2022-07-26T04:49:13.990Z,23.60
2022-07-26T04:54:20.728Z,23.70
2022-07-26T04:59:25.244Z,23.70
2022-07-26T05:04:28.473Z,23.80
2022-07-26T05:09:31.757Z,23.80
2022-07-26T05:14:37.552Z,23.90
2022-07-26T05:19:44.866Z,23.90
2022-07-26T05:24:52.074Z,24.00
2022-07-26T05:29:56.662Z,24.10
2022-07-26T05:34:59.768Z,24.10
2022-07-26T05:40:02.996Z,24.10
2022-07-26T05:45:08.786Z,24.10
2022-07-26T05:50:11.973Z,24.20
2022-07-26T05:55:15.493Z,24.20
2022-07-26T06:00:20.880Z,24.20
2022-07-26T06:05:24.237Z,24.30
2022-07-26T06:10:27.542Z,24.30
2022-07-26T06:15:32.241Z,24.30
2022-07-26T06:20:35.396Z,24.30
2022-07-26T06:25:38.798Z,24.30
2022-07-26T06:30:45.576Z,24.40
2022-07-26T06:35:48.864Z,24.40
2022-07-26T06:40:51.999Z,24.40
2022-07-26T06:45:56.543Z,24.40
2022-07-26T06:50:59.756Z,24.40
2022-07-26T06:56:18.879Z,24.40
2022-07-26T07:01:55.551Z,24.40
2022-07-26T07:06:46.679Z,24.40
2022-07-26T07:11:52.313Z,24.40
2022-07-26T07:17:01.305Z,24.30
2022-07-26T07:22:04.723Z,24.30
2022-07-26T07:27:08.665Z,24.40
2022-07-26T07:32:15.862Z,24.50
2022-07-26T07:37:21.698Z,24.50
2022-07-26T07:42:24.925Z,24.60
2022-07-26T07:47:29.553Z,24.70
2022-07-26T07:52:36.320Z,24.80
2022-07-26T07:57:39.500Z,24.80
2022-07-26T08:02:44.039Z,24.90
2022-07-26T08:07:47.179Z,25.00
2022-07-26T08:12:51.275Z,25.00
2022-07-26T08:17:56.566Z,25.10
2022-07-26T08:23:01.771Z,25.10
2022-07-26T08:28:05.294Z,25.10
2022-07-26T08:33:10.028Z,25.20
2022-07-26T08:38:13.244Z,25.30
2022-07-26T08:43:16.391Z,25.40
2022-07-26T08:48:21.035Z,25.60
2022-07-26T08:53:24.919Z,25.70
2022-07-26T08:58:28.120Z,25.90
2022-07-26T09:03:33.268Z,25.90
2022-07-26T09:08:37.243Z,26.10
2022-07-26T09:13:51.770Z,26.20
2022-07-26T09:18:57.359Z,26.30
2022-07-26T09:24:01.304Z,26.40
2022-07-26T09:29:09.651Z,26.50
2022-07-26T09:34:25.017Z,26.80
2022-07-26T09:39:33.733Z,26.90
2022-07-26T09:44:48.029Z,27.10
2022-07-26T09:50:11.773Z,27.30
2022-07-26T09:55:16.434Z,27.40
2022-07-26T10:00:20.608Z,27.50
2022-07-26T10:05:25.879Z,27.70
2022-07-26T10:10:32.125Z,27.70
2022-07-26T10:15:40.580Z,27.80
2022-07-26T10:20:50.607Z,27.90
2022-07-26T10:25:53.965Z,28.00
2022-07-26T10:31:26.299Z,28.10
2022-07-26T10:36:37.023Z,28.10
2022-07-26T10:41:42.636Z,28.10
2022-07-26T10:47:12.765Z,28.00
2022-07-26T10:52:19.053Z,28.10
2022-07-26T10:57:22.397Z,28.20
2022-07-26T11:02:28.693Z,28.30
2022-07-26T11:07:33.486Z,28.50
2022-07-26T11:12:36.650Z,28.50
2022-07-26T11:17:39.785Z,28.50
2022-07-26T11:22:44.416Z,28.50
2022-07-26T11:28:00.360Z,28.60
2022-07-26T11:33:05.201Z,28.80
2022-07-26T11:38:12.457Z,29.00
2022-07-26T11:43:15.841Z,29.00
2022-07-26T11:48:19.013Z,29.10
2022-07-26T11:53:24.313Z,29.20
2022-07-26T11:58:27.528Z,29.30
2022-07-26T12:03:30.729Z,29.30
2022-07-26T12:08:45.455Z,29.40
2022-07-26T12:14:06.592Z,29.40
2022-07-26T12:19:23.147Z,29.40
2022-07-26T12:24:39.529Z,29.40
2022-07-26T12:29:44.557Z,29.30
2022-07-26T12:34:58.998Z,29.40
2022-07-26T12:40:07.902Z,29.40
2022-07-26T12:45:13.306Z,29.40
2022-07-26T12:50:18.087Z,29.50
2022-07-26T12:55:22.646Z,29.60
2022-07-26T13:00:26.105Z,29.80
2022-07-26T13:05:31.389Z,29.90
2022-07-26T13:10:36.492Z,30.00
2022-07-26T13:15:39.969Z,30.10
2022-07-26T13:20:43.150Z,30.10
2022-07-26T13:25:47.685Z,30.10
2022-07-26T13:30:50.854Z,30.10
2022-07-26T13:35:54.023Z,30.10
2022-07-26T13:40:58.587Z,30.10
2022-07-26T13:46:02.357Z,30.10
2022-07-26T13:51:06.182Z,30.20
2022-07-26T13:56:11.043Z,30.30
2022-07-26T14:01:14.234Z,30.30
2022-07-26T14:06:17.471Z,30.30
2022-07-26T14:11:22.148Z,30.30
2022-07-26T14:16:27.692Z,30.30
2022-07-26T14:21:46.958Z,30.20
2022-07-26T14:26:59.807Z,30.10
2022-07-26T14:32:06.783Z,30.10
2022-07-26T14:37:41.768Z,30.10
2022-07-26T14:42:34.772Z,30.10
2022-07-26T14:47:38.345Z,30.10
2022-07-26T14:52:42.277Z,30.00
2022-07-26T14:57:47.180Z,30.00
2022-07-26T15:02:50.554Z,30.00
2022-07-26T15:07:53.759Z,30.00
2022-07-26T15:12:58.426Z,30.10
2022-07-26T15:18:01.694Z,30.00
2022-07-26T15:23:04.979Z,30.00
2022-07-26T15:28:13.096Z,30.00
2022-07-26T15:33:16.261Z,29.80
2022-07-26T15:38:19.411Z,29.70
2022-07-26T15:43:46.090Z,29.70
2022-07-26T15:48:48.857Z,29.70
2022-07-26T15:53:52.260Z,29.70
2022-07-26T15:58:56.839Z,29.80
2022-07-26T16:04:00.189Z,29.90
2022-07-26T16:09:19.950Z,29.90
2022-07-26T16:14:24.705Z,29.90
2022-07-26T16:19:27.954Z,29.80
2022-07-26T16:24:31.267Z,29.90
2022-07-26T16:29:35.770Z,30.00
2022-07-26T16:34:39.247Z,30.00
2022-07-26T16:39:42.613Z,30.00
2022-07-26T16:44:47.097Z,30.00
2022-07-26T16:49:50.398Z,30.00
2022-07-26T16:54:53.561Z,29.90
2022-07-26T16:59:58.087Z,29.90
2022-07-26T17:05:01.325Z,29.90
2022-07-26T17:10:06.178Z,29.80
2022-07-26T17:15:11.648Z,29.80
2022-07-26T17:20:14.893Z,29.80
2022-07-26T17:25:18.089Z,29.80
2022-07-26T17:30:22.843Z,29.70
2022-07-26T17:35:26.113Z,29.60
2022-07-26T17:40:29.814Z,29.50
2022-07-26T17:45:34.483Z,29.40
2022-07-26T17:50:38.779Z,29.40
2022-07-26T17:55:42.261Z,29.40
2022-07-26T18:00:47.305Z,29.40
2022-07-26T18:05:50.659Z,29.30
2022-07-26T18:10:54.022Z,29.20
2022-07-26T18:16:01.853Z,29.10
2022-07-26T18:21:08.869Z,29.00
2022-07-26T18:26:12.138Z,29.00
2022-07-26T18:31:16.823Z,28.90
2022-07-26T18:36:20.230Z,28.90
2022-07-26T18:41:23.446Z,28.90
2022-07-26T18:46:28.100Z,28.80
2022-07-26T18:51:31.748Z,28.80
2022-07-26T18:56:35.101Z,28.80
2022-07-26T19:01:39.822Z,28.80
2022-07-26T19:06:43.070Z,28.70
2022-07-26T19:11:46.448Z,28.60
2022-07-26T19:16:51.174Z,28.50
2022-07-26T19:21:54.505Z,28.50
2022-07-26T19:26:57.928Z,28.40
2022-07-26T19:32:02.929Z,28.30
2022-07-26T19:37:06.083Z,28.20
2022-07-26T19:42:09.919Z,28.10
2022-07-26T19:47:15.064Z,28.10
2022-07-26T19:52:18.385Z,28.00
2022-07-26T19:57:21.870Z,27.90
2022-07-26T20:02:26.584Z,27.80
2022-07-26T20:07:31.129Z,27.70
2022-07-26T20:12:34.429Z,27.50
2022-07-26T20:17:39.813Z,27.20
2022-07-26T20:22:43.074Z,26.90
2022-07-26T20:27:48.257Z,26.60
2022-07-26T20:32:52.857Z,26.30
2022-07-26T20:37:56.286Z,26.20
2022-07-26T20:42:59.685Z,26.10
2022-07-26T20:48:04.633Z,26.10
2022-07-26T20:53:07.877Z,26.10
2022-07-26T20:58:11.520Z,26.20
2022-07-26T21:03:16.849Z,26.20
2022-07-26T21:08:20.903Z,26.20
2022-07-26T21:13:24.106Z,26.20
2022-07-26T21:18:29.977Z,26.20
2022-07-26T21:23:33.218Z,26.10
2022-07-26T21:28:36.697Z,26.10
2022-07-26T21:33:41.257Z,26.10
2022-07-26T21:38:44.626Z,26.10
2022-07-26T21:43:47.785Z,25.90
2022-07-26T21:48:52.658Z,25.80
2022-07-26T21:53:56.389Z,25.70
2022-07-26T21:59:01.118Z,25.50
2022-07-26T22:04:05.941Z,25.30
2022-07-26T22:09:09.512Z,25.20
2022-07-26T22:14:12.993Z,25.10
2022-07-26T22:19:17.618Z,25.10
2022-07-26T22:24:20.781Z,25.00
2022-07-26T22:29:23.980Z,24.90
2022-07-26T22:34:28.694Z,24.80
2022-07-26T22:39:31.895Z,24.70
2022-07-26T22:44:35.197Z,24.70
2022-07-26T22:49:39.838Z,24.70
2022-07-26T22:54:43.053Z,24.60
2022-07-26T22:59:46.262Z,24.60
2022-07-26T23:04:50.789Z,24.50
2022-07-26T23:09:54.326Z,24.30
2022-07-26T23:14:57.428Z,24.20
2022-07-26T23:20:02.025Z,24.10
2022-07-26T23:25:06.196Z,24.10
2022-07-26T23:30:10.470Z,24.00
2022-07-26T23:35:15.014Z,23.90
2022-07-26T23:40:18.230Z,23.80
2022-07-26T23:45:21.454Z,23.80
2022-07-26T23:50:26.652Z,23.80
2022-07-26T23:55:35.605Z,23.70
